Time;durP1;ratioP1;P1;durP2;ratioP2;P2;SDS_P1;SDS_P2;PMS_P1;PMS_P2;Temp;Humidity;BMP_temperature;BMP_pressure;BME280_temperature;BME280_humidity;BME280_pressure;Samples;Min_cycle;Max_cycle;Signal;HPM_P1;HPM_P2
2021/08/18 00:01:33;;;;;;;10.65;5.85;;;;;;;19.30;63.95;101510.81;4854807;28;124441;-68
2021/08/18 00:04:02;;;;;;;10.30;6.20;;;;;;;19.30;64.00;101510.81;4854419;28;114985;-68
2021/08/18 00:06:29;;;;;;;8.60;5.75;;;;;;;19.31;64.06;101507.16;4848250;29;114580;-67
2021/08/18 00:08:57;;;;;;;7.75;5.45;;;;;;;19.31;63.91;101509.84;4853061;29;123798;-69
2021/08/18 00:11:24;;;;;;;9.63;5.80;;;;;;;19.30;63.93;101511.66;4852190;29;124198;-69
2021/08/18 00:13:51;;;;;;;11.18;5.78;;;;;;;19.31;63.93;101512.53;4855461;29;114344;-69
2021/08/18 00:16:20;;;;;;;9.15;5.95;;;;;;;19.30;63.92;101510.81;4833602;28;113749;-68
2021/08/18 00:18:52;;;;;;;9.43;5.88;;;;;;;19.29;63.71;101509.09;4838873;29;122587;-69
2021/08/18 00:21:20;;;;;;;9.57;5.65;;;;;;;19.27;63.75;101503.84;4846724;29;123586;-69
2021/08/18 00:23:48;;;;;;;8.50;5.03;;;;;;;19.26;64.03;101505.66;4850793;28;113493;-68
2021/08/18 00:26:15;;;;;;;8.23;5.68;;;;;;;19.27;63.93;101506.53;4853475;28;114329;-69
2021/08/18 00:28:43;;;;;;;9.00;5.55;;;;;;;19.28;63.95;101502.00;4840178;29;123917;-69
2021/08/18 00:31:11;;;;;;;9.93;5.88;;;;;;;19.29;63.88;101509.09;4836318;29;124483;-69
2021/08/18 00:33:38;;;;;;;10.25;6.40;;;;;;;19.29;63.87;101509.09;4838564;29;113510;-69
2021/08/18 00:36:05;;;;;;;10.15;5.72;;;;;;;19.28;63.85;101507.38;4839645;29;114141;-69
2021/08/18 00:38:32;;;;;;;9.57;6.60;;;;;;;19.28;63.97;101507.38;4849840;29;124702;-69
2021/08/18 00:41:00;;;;;;;8.98;6.05;;;;;;;19.28;64.00;101504.69;4848430;29;123656;-69
2021/08/18 00:43:27;;;;;;;7.85;5.40;;;;;;;19.27;63.86;101506.53;4838015;29;114470;-69
2021/08/18 00:45:54;;;;;;;10.43;5.80;;;;;;;19.27;63.85;101506.53;4851245;29;113318;-69
2021/08/18 00:48:21;;;;;;;9.75;6.40;;;;;;;19.26;63.90;101505.66;4850206;29;124317;-69
2021/08/18 00:50:48;;;;;;;10.43;6.13;;;;;;;19.25;64.04;101503.94;4848502;29;125082;-69
2021/08/18 00:53:15;;;;;;;9.73;6.38;;;;;;;19.24;64.18;101502.22;4834281;29;114274;-69
2021/08/18 00:55:42;;;;;;;10.80;6.60;;;;;;;19.24;64.09;101496.84;4851979;28;114851;-68
2021/08/18 00:58:10;;;;;;;10.70;6.35;;;;;;;19.25;64.21;101498.59;4854809;29;124079;-69
2021/08/18 01:00:37;;;;;;;10.70;6.80;;;;;;;19.25;64.06;101503.94;4836224;29;123643;-68
2021/08/18 01:03:04;;;;;;;10.05;6.93;;;;;;;19.26;63.99;101494.06;4835401;29;114266;-69
2021/08/18 01:05:31;;;;;;;12.68;6.60;;;;;;;19.28;64.32;101502.00;4852868;29;114141;-69
2021/08/18 01:08:01;;;;;;;11.05;6.40;;;;;;;19.29;64.36;101504.59;4851962;28;124786;-69
2021/08/18 01:10:34;;;;;;;10.43;6.60;;;;;;;19.31;64.27;101507.16;4839599;29;122676;-69
2021/08/18 01:13:03;;;;;;;10.50;6.95;;;;;;;19.32;64.30;101504.34;4850975;29;114009;-68
2021/08/18 01:15:31;;;;;;;12.30;7.25;;;;;;;19.36;64.16;101502.31;4852736;29;114298;-69
2021/08/18 01:18:01;;;;;;;10.23;7.13;;;;;;;19.37;64.16;101501.34;4834569;29;124186;-69
2021/08/18 01:20:37;;;;;;;13.43;7.13;;;;;;;19.37;64.22;101507.59;4835636;29;124857;-69
2021/08/18 01:23:07;;;;;;;15.32;7.00;;;;;;;19.38;64.04;101508.44;4852207;29;114358;-68
2021/08/18 01:25:35;;;;;;;12.60;7.32;;;;;;;19.38;64.30;101508.44;4855194;29;114474;-69
2021/08/18 01:28:04;;;;;;;13.52;7.78;;;;;;;19.40;64.36;101503.81;4854434;29;124748;-69
2021/08/18 01:30:32;;;;;;;12.88;7.65;;;;;;;19.40;64.09;101503.81;4851502;28;123749;-69
2021/08/18 01:33:09;;;;;;;12.38;7.80;;;;;;;19.38;64.44;101506.63;4849453;29;113801;-69
2021/08/18 01:35:39;;;;;;;11.85;7.47;;;;;;;19.39;64.17;101504.78;4851341;29;114535;-69
2021/08/18 01:38:08;;;;;;;11.07;7.20;;;;;;;19.39;64.30;101510.16;4819154;29;123223;-69
2021/08/18 01:40:36;;;;;;;11.25;7.15;;;;;;;19.42;64.17;101509.94;4849769;29;124604;-69
2021/08/18 01:43:04;;;;;;;12.20;7.82;;;;;;;19.40;64.23;101512.75;4848854;28;115374;-69
2021/08/18 01:45:34;;;;;;;10.75;7.32;;;;;;;19.40;64.38;101511.88;4832746;29;114683;-69
2021/08/18 01:48:06;;;;;;;11.88;7.30;;;;;;;19.40;64.43;101511.88;4836581;29;123034;-69
2021/08/18 01:50:33;;;;;;;13.20;7.82;;;;;;;19.40;64.29;101512.75;4834311;29;123791;-69
2021/08/18 01:53:00;;;;;;;11.40;7.60;;;;;;;19.40;64.15;101504.69;4848395;29;114314;-69
2021/08/18 01:55:28;;;;;;;14.15;8.02;;;;;;;19.41;64.18;101502.84;4849138;29;114747;-69
2021/08/18 01:57:57;;;;;;;13.73;7.80;;;;;;;19.42;64.35;101507.25;4851374;29;124037;-69
2021/08/18 02:00:25;;;;;;;11.38;7.25;;;;;;;19.42;64.51;101504.56;4845170;28;124690;-69
2021/08/18 02:02:52;;;;;;;11.85;7.32;;;;;;;19.44;64.36;101502.66;4825632;29;114234;-69
2021/08/18 02:05:22;;;;;;;10.65;7.40;;;;;;;19.46;64.43;101500.69;4840666;29;114274;-70
2021/08/18 02:07:50;;;;;;;10.43;7.38;;;;;;;19.46;64.44;101506.06;4834027;29;122952;-69
2021/08/18 02:10:18;;;;;;;12.63;7.40;;;;;;;19.47;64.29;101491.66;4850764;29;123725;-69
2021/08/18 02:12:45;;;;;;;10.95;7.82;;;;;;;19.48;64.23;101493.38;4849400;29;114149;-69
2021/08/18 02:15:19;;;;;;;10.48;7.30;;;;;;;19.50;64.27;101496.81;4848084;29;112994;-69
2021/08/18 02:17:47;;;;;;;10.98;8.05;;;;;;;19.51;64.34;101495.81;4883855;23;124610;-72
2021/08/18 02:20:18;;;;;;;14.07;7.60;;;;;;;19.51;64.28;101492.28;4874677;28;123653;-73
2021/08/18 02:22:46;;;;;;;11.38;6.97;;;;;;;19.51;64.34;101498.50;4871837;28;114444;-73
2021/08/18 02:25:13;;;;;;;11.23;7.13;;;;;;;19.51;64.23;101498.50;4873884;28;113038;-73
2021/08/18 02:27:41;;;;;;;11.68;7.28;;;;;;;19.51;64.34;101492.28;4874732;28;124043;-73
2021/08/18 02:30:10;;;;;;;10.93;7.35;;;;;;;19.52;64.45;101494.88;4871293;28;124314;-73
2021/08/18 02:32:37;;;;;;;11.60;7.05;;;;;;;19.52;64.11;101494.88;4869853;28;115235;-73
2021/08/18 02:35:06;;;;;;;10.02;7.07;;;;;;;19.52;64.35;101494.88;4859182;28;113487;-73
2021/08/18 02:37:34;;;;;;;11.70;7.32;;;;;;;19.51;64.41;101490.47;4844219;28;123452;-73
2021/08/18 02:40:02;;;;;;;10.85;6.47;;;;;;;19.51;64.35;101493.16;4875150;28;123286;-73
2021/08/18 02:42:29;;;;;;;8.85;6.28;;;;;;;19.52;64.29;101488.66;4860245;28;113187;-73
2021/08/18 02:44:56;;;;;;;11.30;6.95;;;;;;;19.53;64.28;101485.81;4869407;28;113842;-73
2021/08/18 02:47:23;;;;;;;11.68;6.32;;;;;;;19.53;64.50;101491.19;4846916;28;124007;-73
2021/08/18 02:49:50;;;;;;;10.45;6.25;;;;;;;19.54;64.49;101489.41;4873813;28;123603;-73
2021/08/18 02:52:17;;;;;;;11.25;6.25;;;;;;;19.53;64.25;101490.34;4874392;28;114305;-73
2021/08/18 02:54:44;;;;;;;10.43;6.10;;;;;;;19.54;64.25;101492.94;4876694;28;114429;-73
2021/08/18 02:57:11;;;;;;;9.32;5.90;;;;;;;19.53;64.18;101493.03;4854855;28;123768;-73
2021/08/18 02:59:38;;;;;;;9.63;5.78;;;;;;;19.51;64.26;101493.16;4866744;28;123638;-73
2021/08/18 03:02:05;;;;;;;9.70;5.82;;;;;;;19.50;64.33;101496.81;4860171;28;114155;-73
2021/08/18 03:04:33;;;;;;;8.70;5.57;;;;;;;19.48;64.51;101504.13;4854861;28;114226;-73
2021/08/18 03:07:00;;;;;;;8.00;5.50;;;;;;;19.48;64.20;101498.75;4877301;28;123948;-74
2021/08/18 03:09:27;;;;;;;9.55;5.57;;;;;;;19.47;64.30;101499.72;4860231;28;122037;-73
2021/08/18 03:11:54;;;;;;;7.82;5.13;;;;;;;19.46;64.41;101500.69;4875592;28;114070;-73
2021/08/18 03:14:21;;;;;;;7.38;5.38;;;;;;;19.45;64.42;101490.91;4860533;28;112603;-73
2021/08/18 03:16:48;;;;;;;7.45;4.97;;;;;;;19.45;64.35;101485.53;4860094;28;122971;-73
2021/08/18 03:19:16;;;;;;;7.30;4.75;;;;;;;19.45;64.38;101483.69;4877788;28;123832;-73
2021/08/18 03:21:43;;;;;;;9.30;5.18;;;;;;;19.47;64.37;101486.28;4857821;28;115007;-73
2021/08/18 03:24:11;;;;;;;6.95;4.90;;;;;;;19.48;64.27;101493.38;4874657;28;117096;-72
2021/08/18 03:26:39;;;;;;;8.30;4.90;;;;;;;19.50;64.35;101494.13;4858006;28;123914;-73
2021/08/18 03:29:07;;;;;;;9.82;5.03;;;;;;;19.50;64.28;101486.06;4876695;28;123986;-72
2021/08/18 03:31:34;;;;;;;7.38;4.85;;;;;;;19.51;64.25;101492.28;4857384;28;113886;-73
2021/08/18 03:34:01;;;;;;;6.72;4.88;;;;;;;19.52;64.21;101499.41;4870649;28;113951;-73
2021/08/18 03:36:29;;;;;;;7.43;4.95;;;;;;;19.53;64.15;101501.94;4875166;28;124121;-73
2021/08/18 03:38:57;;;;;;;9.35;4.90;;;;;;;19.53;64.25;101501.94;4877204;28;123947;-73
2021/08/18 03:41:24;;;;;;;7.60;4.75;;;;;;;19.53;64.19;101499.25;4875159;28;113972;-73
2021/08/18 03:43:51;;;;;;;10.07;5.20;;;;;;;19.55;64.33;101507.22;4874026;28;114666;-72
2021/08/18 03:46:18;;;;;;;10.95;5.55;;;;;;;19.55;64.22;101509.91;4874034;28;124242;-73
2021/08/18 03:48:45;;;;;;;10.25;5.55;;;;;;;19.54;64.18;101503.69;4854491;28;123836;-73
2021/08/18 03:51:13;;;;;;;7.72;5.28;;;;;;;19.53;64.19;101507.31;4859492;28;113488;-73
2021/08/18 03:53:40;;;;;;;8.43;5.30;;;;;;;19.53;64.31;101504.63;4874510;28;113953;-73
2021/08/18 03:56:07;;;;;;;9.85;5.50;;;;;;;19.51;64.18;101509.25;4876430;28;124890;-73
2021/08/18 03:58:34;;;;;;;8.27;5.68;;;;;;;19.51;64.24;101495.81;4855582;28;122841;-73
2021/08/18 04:01:01;;;;;;;10.60;5.50;;;;;;;19.51;64.25;101498.50;4873466;28;114064;-73
2021/08/18 04:03:32;;;;;;;9.45;6.38;;;;;;;19.51;64.10;101497.66;4859675;28;113238;-73
2021/08/18 04:05:59;;;;;;;11.27;5.88;;;;;;;19.50;64.30;101496.81;4855145;28;123294;-72
2021/08/18 04:08:26;;;;;;;9.38;6.03;;;;;;;19.50;64.37;101495.97;4858935;28;125158;-73
2021/08/18 04:10:54;;;;;;;9.55;5.70;;;;;;;19.49;64.42;101491.53;4856327;28;115594;-73
2021/08/18 04:13:21;;;;;;;11.07;6.45;;;;;;;19.47;64.55;101497.03;4859125;28;114573;-73
2021/08/18 04:15:48;;;;;;;9.73;6.40;;;;;;;19.46;64.35;101489.97;4859495;28;123888;-73
2021/08/18 04:18:15;;;;;;;10.95;6.70;;;;;;;19.46;64.37;101495.31;4875349;28;122784;-73
2021/08/18 04:20:43;;;;;;;10.70;6.30;;;;;;;19.46;64.46;101500.69;4859262;28;113614;-73
2021/08/18 04:23:10;;;;;;;11.52;6.65;;;;;;;19.46;64.51;101514.13;4859662;28;114211;-73
2021/08/18 04:25:38;;;;;;;12.48;7.15;;;;;;;19.47;64.58;101513.16;4859302;28;123413;-73
2021/08/18 04:28:06;;;;;;;11.70;6.72;;;;;;;19.49;64.42;101508.53;4843380;28;123589;-73
2021/08/18 04:30:33;;;;;;;10.55;6.65;;;;;;;19.49;64.54;101511.22;4855719;28;114599;-73
2021/08/18 04:33:00;;;;;;;9.98;6.10;;;;;;;19.50;64.80;101512.94;4874226;28;113896;-73
2021/08/18 04:35:27;;;;;;;11.75;6.43;;;;;;;19.51;64.55;101511.94;4856584;28;123135;-73
2021/08/18 04:37:57;;;;;;;13.52;6.90;;;;;;;19.52;64.50;101516.38;4856641;28;124391;-73
2021/08/18 04:40:24;;;;;;;13.32;7.25;;;;;;;19.51;64.64;101520.00;4874314;28;114296;-73
2021/08/18 04:42:51;;;;;;;8.82;6.30;;;;;;;19.52;64.64;101511.00;4872751;28;113922;-73
2021/08/18 04:45:19;;;;;;;12.63;7.40;;;;;;;19.51;64.60;101514.63;4873881;28;124470;-73
2021/08/18 04:47:46;;;;;;;11.57;7.22;;;;;;;19.52;64.61;101504.78;4852650;28;124211;-73
2021/08/18 04:50:15;;;;;;;10.70;6.75;;;;;;;19.53;64.55;101507.31;4874066;28;114363;-73
2021/08/18 04:52:42;;;;;;;10.70;6.88;;;;;;;19.55;64.58;101507.22;4872112;28;113689;-73
2021/08/18 04:55:10;;;;;;;11.80;6.78;;;;;;;19.55;64.56;101505.41;4874587;28;123952;-73
2021/08/18 04:57:37;;;;;;;11.85;6.80;;;;;;;19.57;64.60;101503.47;4868789;28;123661;-73
2021/08/18 05:00:05;;;;;;;11.45;7.15;;;;;;;19.56;64.62;101501.75;4874805;28;114418;-72
2021/08/18 05:02:37;;;;;;;12.18;6.60;;;;;;;19.56;64.55;101501.75;4855352;28;114136;-73
2021/08/18 05:05:05;;;;;;;13.63;6.32;;;;;;;19.57;64.54;101503.47;4853461;28;123048;-73
2021/08/18 05:07:32;;;;;;;10.63;6.75;;;;;;;19.58;64.62;101505.16;4874541;28;123689;-72
2021/08/18 05:09:59;;;;;;;9.63;6.78;;;;;;;19.59;64.58;101496.16;4857604;28;114182;-73
2021/08/18 05:12:26;;;;;;;8.77;5.85;;;;;;;19.60;64.64;101497.84;4859131;28;112789;-72
2021/08/18 05:14:53;;;;;;;9.60;6.43;;;;;;;19.60;64.58;101487.09;4878801;28;124214;-72
2021/08/18 05:17:20;;;;;;;12.00;6.22;;;;;;;19.62;64.54;101495.91;4863745;28;124578;-73
2021/08/18 05:19:47;;;;;;;11.35;6.68;;;;;;;19.61;64.57;101494.22;4877350;28;113565;-72
2021/08/18 05:22:15;;;;;;;8.98;6.15;;;;;;;19.61;64.62;101488.84;4864965;28;114581;-72
2021/08/18 05:24:42;;;;;;;10.55;5.80;;;;;;;19.61;64.90;101486.16;4857978;28;123100;-73
2021/08/18 05:27:09;;;;;;;11.13;6.28;;;;;;;19.62;64.79;101487.84;4855092;28;123704;-73
2021/08/18 05:29:36;;;;;;;11.45;6.50;;;;;;;19.63;64.60;101492.25;4858499;28;114889;-72
2021/08/18 05:32:03;;;;;;;9.23;6.00;;;;;;;19.63;64.69;101489.56;4872650;28;113895;-73
2021/08/18 05:34:30;;;;;;;8.75;6.20;;;;;;;19.64;64.90;101493.13;4856872;28;123168;-72
2021/08/18 05:36:57;;;;;;;9.18;5.93;;;;;;;19.64;64.88;101493.97;4857061;28;123362;-73
2021/08/18 05:39:24;;;;;;;9.30;6.40;;;;;;;19.66;64.78;101493.84;4857526;28;112340;-73
2021/08/18 05:41:51;;;;;;;9.00;6.10;;;;;;;19.69;64.72;101495.47;4857077;28;113809;-72
2021/08/18 05:44:18;;;;;;;9.43;6.20;;;;;;;19.71;64.79;101493.53;4865199;28;122951;-72
2021/08/18 05:46:46;;;;;;;9.50;6.38;;;;;;;19.73;64.73;101491.63;4852959;28;122947;-73
2021/08/18 05:49:20;;;;;;;11.07;6.57;;;;;;;19.75;64.78;101500.44;4873508;28;115181;-73
2021/08/18 05:51:49;;;;;;;9.33;6.53;;;;;;;19.77;64.73;101498.50;4866570;28;115028;-73
2021/08/18 05:54:18;;;;;;;8.45;5.68;;;;;;;19.78;64.77;101501.06;4854485;28;124390;-73
2021/08/18 05:56:45;;;;;;;10.27;6.07;;;;;;;19.79;64.87;101507.28;4857135;28;124095;-73
2021/08/18 05:59:12;;;;;;;11.70;7.13;;;;;;;19.81;64.77;101505.34;4872598;28;114101;-73
2021/08/18 06:01:39;;;;;;;9.43;6.47;;;;;;;19.83;64.95;101506.09;4870082;28;113971;-73
2021/08/18 06:04:06;;;;;;;10.75;7.00;;;;;;;19.85;64.82;101501.47;4854451;28;123053;-73
2021/08/18 06:06:33;;;;;;;11.05;6.78;;;;;;;19.87;64.78;101494.13;4872711;28;123703;-72
2021/08/18 06:09:01;;;;;;;9.40;6.90;;;;;;;19.89;64.80;101497.59;4861147;28;113404;-75
2021/08/18 06:11:28;;;;;;;12.20;7.40;;;;;;;19.89;64.86;101486.84;4875114;28;113994;-71
2021/08/18 06:13:55;;;;;;;11.30;7.45;;;;;;;19.91;64.95;101494.78;4874876;28;124573;-71
2021/08/18 06:16:25;;;;;;;14.07;8.07;;;;;;;19.94;64.96;101495.41;4876986;28;123637;-71
2021/08/18 06:18:52;;;;;;;11.40;7.55;;;;;;;19.96;64.90;101488.06;4860236;28;113534;-71
2021/08/18 06:21:19;;;;;;;12.02;7.78;;;;;;;20.00;64.92;101494.97;4861518;28;113945;-71
2021/08/18 06:23:47;;;;;;;12.93;7.38;;;;;;;20.06;64.86;101492.78;4883789;28;124725;-71
2021/08/18 06:26:14;;;;;;;12.02;7.95;;;;;;;20.10;64.85;101499.63;4862747;28;122161;-71
2021/08/18 06:28:41;;;;;;;10.98;7.72;;;;;;;20.12;64.88;101503.09;4879148;28;113791;-71
2021/08/18 06:31:08;;;;;;;13.38;8.27;;;;;;;20.17;65.05;101500.91;4880669;28;114929;-71
2021/08/18 06:33:36;;;;;;;14.05;8.75;;;;;;;20.20;64.96;101503.38;4849836;28;124841;-71
2021/08/18 06:36:03;;;;;;;13.32;8.75;;;;;;;20.23;64.86;101500.44;4856909;28;122666;-71
2021/08/18 06:38:30;;;;;;;11.05;8.23;;;;;;;20.26;64.98;101504.72;4872535;28;115244;-71
2021/08/18 06:40:57;;;;;;;13.07;8.48;;;;;;;20.29;64.71;101510.75;4857035;28;114630;-71
2021/08/18 06:43:25;;;;;;;16.00;8.63;;;;;;;20.30;65.13;101507.06;4869253;28;124045;-71
2021/08/18 06:45:52;;;;;;;13.35;8.35;;;;;;;20.33;64.90;101506.84;4872496;28;124010;-71
2021/08/18 06:48:19;;;;;;;12.75;8.77;;;;;;;20.36;64.74;101506.63;4857944;28;114063;-71
2021/08/18 06:50:46;;;;;;;12.40;8.55;;;;;;;20.40;64.81;101508.09;4856710;28;112855;-71
2021/08/18 06:53:13;;;;;;;14.23;8.63;;;;;;;20.47;64.81;101502.25;4852143;28;124254;-71
2021/08/18 06:55:40;;;;;;;12.60;8.50;;;;;;;20.51;64.73;101509.09;4869247;28;123974;-71
2021/08/18 06:58:07;;;;;;;13.23;9.13;;;;;;;20.55;64.63;101510.56;4875140;28;113388;-71
2021/08/18 07:00:34;;;;;;;12.80;8.88;;;;;;;20.58;64.75;101510.34;4858061;28;113747;-71
2021/08/18 07:03:02;;;;;;;14.32;9.13;;;;;;;20.63;64.98;101510.91;4864768;28;124617;-72
2021/08/18 07:05:32;;;;;;;14.40;9.43;;;;;;;20.70;64.67;101513.94;4866783;28;123111;-72
2021/08/18 07:07:59;;;;;;;14.82;8.82;;;;;;;20.73;64.53;101519.97;4856395;28;113347;-72
2021/08/18 07:10:27;;;;;;;13.57;9.02;;;;;;;20.77;64.47;101516.03;4873911;28;113877;-72
2021/08/18 07:12:54;;;;;;;13.48;9.15;;;;;;;20.79;64.45;101514.13;4868869;28;123772;-72
2021/08/18 07:15:22;;;;;;;12.15;8.43;;;;;;;20.84;64.56;101510.22;4873806;28;125753;-72
2021/08/18 07:17:49;;;;;;;15.10;8.85;;;;;;;20.88;64.48;101511.69;4868444;28;113518;-72
2021/08/18 07:20:16;;;;;;;12.90;9.07;;;;;;;20.92;64.42;101513.16;4881866;28;113245;-73
2021/08/18 07:22:43;;;;;;;13.23;8.35;;;;;;;20.96;64.45;101509.22;4888494;28;123843;-72
2021/08/18 07:25:11;;;;;;;15.98;9.52;;;;;;;21.03;64.41;101521.25;4881319;28;123549;-72
2021/08/18 07:27:38;;;;;;;14.55;8.85;;;;;;;21.08;64.13;101524.44;4874480;28;115479;-72
2021/08/18 07:30:06;;;;;;;12.98;8.73;;;;;;;21.12;64.20;101509.75;4860411;28;114752;-72
2021/08/18 07:32:34;;;;;;;13.50;9.35;;;;;;;21.18;64.04;101509.25;4875620;28;123973;-72
2021/08/18 07:35:01;;;;;;;14.35;8.98;;;;;;;21.26;64.25;101505.09;4844353;29;123631;-73
2021/08/18 07:37:30;;;;;;;14.13;8.85;;;;;;;21.33;64.03;101500.94;4858832;28;114348;-73
2021/08/18 07:39:57;;;;;;;12.70;9.25;;;;;;;21.40;64.03;101502.16;4856884;29;114141;-72
2021/08/18 07:42:25;;;;;;;13.35;9.05;;;;;;;21.46;64.06;101507.09;4841002;29;124352;-73
2021/08/18 07:44:52;;;;;;;14.57;9.27;;;;;;;21.53;63.73;101504.72;4875340;28;123759;-72
2021/08/18 07:47:20;;;;;;;14.57;9.20;;;;;;;21.56;63.70;101502.66;4844465;28;113231;-73
2021/08/18 07:49:47;;;;;;;16.02;9.88;;;;;;;21.62;63.47;101505.84;4873790;28;113766;-73
2021/08/18 07:52:14;;;;;;;15.55;9.02;;;;;;;21.66;63.59;101507.28;4856149;28;123863;-73
2021/08/18 07:54:41;;;;;;;13.98;9.82;;;;;;;21.71;63.30;101505.94;4859314;28;124135;-72
2021/08/18 07:57:08;;;;;;;16.20;10.20;;;;;;;21.78;63.41;101500.91;4869957;28;113848;-72
2021/08/18 07:59:35;;;;;;;15.60;10.00;;;;;;;21.85;63.26;101503.94;4871679;28;114708;-72
2021/08/18 08:02:03;;;;;;;14.80;10.38;;;;;;;21.91;63.17;101507.00;4858543;28;124182;-72
2021/08/18 08:04:30;;;;;;;16.08;10.63;;;;;;;21.96;63.01;101509.31;4857676;28;123848;-72
2021/08/18 08:06:57;;;;;;;15.93;11.18;;;;;;;22.00;62.90;101509.91;4873811;28;114561;-72
2021/08/18 08:09:24;;;;;;;16.13;11.95;;;;;;;22.02;62.69;101502.56;4859879;28;114192;-73
2021/08/18 08:11:51;;;;;;;17.00;11.18;;;;;;;22.05;62.67;101513.09;4875224;28;124262;-72
2021/08/18 08:14:19;;;;;;;15.38;9.90;;;;;;;22.07;62.49;101516.53;4858573;28;123505;-72
2021/08/18 08:16:46;;;;;;;13.77;9.95;;;;;;;22.08;62.46;101519.09;4857989;28;114175;-73
2021/08/18 08:19:14;;;;;;;13.98;9.70;;;;;;;22.11;62.32;101517.97;4874978;23;117774;-65
2021/08/18 08:21:41;;;;;;;13.82;9.68;;;;;;;22.17;62.45;101514.78;4838618;29;122850;-65
2021/08/18 08:24:08;;;;;;;14.30;8.75;;;;;;;22.25;62.43;101515.03;4855651;29;124295;-65
2021/08/18 08:26:35;;;;;;;13.18;8.43;;;;;;;22.32;62.23;101510.81;4854301;29;114638;-65
2021/08/18 08:29:02;;;;;;;12.85;9.32;;;;;;;22.41;62.22;101513.72;4850140;29;114372;-65
2021/08/18 08:31:29;;;;;;;13.20;8.35;;;;;;;22.48;62.09;101514.91;4810028;29;123311;-65
2021/08/18 08:33:56;;;;;;;13.63;8.27;;;;;;;22.54;61.66;101514.38;4838297;29;123886;-65
2021/08/18 08:36:24;;;;;;;11.20;8.20;;;;;;;22.58;61.61;101505.03;4839370;29;114597;-65
2021/08/18 08:38:51;;;;;;;12.00;8.50;;;;;;;22.63;61.48;101508.22;4827582;29;114004;-65
2021/08/18 08:41:19;;;;;;;12.57;8.35;;;;;;;22.67;61.23;101506.09;4830708;29;123890;-65
2021/08/18 08:43:46;;;;;;;13.18;8.25;;;;;;;22.70;61.16;101508.56;4817247;29;125385;-65
2021/08/18 08:46:14;;;;;;;11.30;7.95;;;;;;;22.74;61.06;101505.44;4833232;29;114414;-65
2021/08/18 08:48:41;;;;;;;12.10;8.52;;;;;;;22.79;60.97;101506.88;4831144;29;114134;-65
2021/08/18 08:51:09;;;;;;;11.35;8.10;;;;;;;22.83;60.67;101508.31;4836444;29;124671;-65
2021/08/18 08:53:37;;;;;;;11.55;7.32;;;;;;;22.85;60.22;101511.75;4823277;29;123755;-65
2021/08/18 08:56:07;;;;;;;10.90;7.80;;;;;;;22.84;60.27;101510.06;4838832;29;114087;-65
2021/08/18 08:58:34;;;;;;;10.88;7.95;;;;;;;22.83;60.01;101509.19;4831630;29;114052;-65
2021/08/18 09:01:01;;;;;;;11.57;8.07;;;;;;;22.84;60.04;101510.06;4826843;29;124961;-65
2021/08/18 09:03:29;;;;;;;10.80;8.25;;;;;;;22.85;60.02;101511.75;4826648;29;123977;-65
2021/08/18 09:06:05;;;;;;;10.48;7.88;;;;;;;22.88;60.11;101515.03;4830701;29;115538;-65
2021/08/18 09:08:45;;;;;;;9.30;6.90;;;;;;;22.93;59.91;101514.66;4828869;29;115158;-65
2021/08/18 09:11:14;;;;;;;12.80;8.40;;;;;;;22.99;60.16;101514.13;4822851;29;123183;-65
2021/08/18 09:13:41;;;;;;;10.77;8.20;;;;;;;23.07;60.07;101517.03;4836479;29;124022;-65
2021/08/18 09:16:10;;;;;;;10.30;7.40;;;;;;;23.15;59.95;101512.81;4819368;29;114525;-65
2021/08/18 09:18:58;;;;;;;12.07;8.20;;;;;;;23.20;59.71;101505.16;4821603;29;115324;-65
2021/08/18 09:21:36;;;;;;;10.25;7.70;;;;;;;23.26;59.49;101510.00;4822553;29;124090;-65
2021/08/18 09:24:16;;;;;;;11.48;8.75;;;;;;;23.31;59.54;101507.75;4825882;29;123739;-65
2021/08/18 09:26:55;;;;;;;10.98;8.40;;;;;;;23.36;59.22;101502.81;4825230;29;116910;-65
2021/08/18 09:29:30;;;;;;;11.63;8.90;;;;;;;23.35;58.96;101509.19;4823506;29;113899;-65
2021/08/18 09:32:27;;;;;;;12.63;9.52;;;;;;;23.31;58.85;101502.34;4823441;29;123060;-65
2021/08/18 09:35:08;;;;;;;13.20;8.95;;;;;;;23.28;58.83;101502.63;4819965;28;124171;-65
2021/08/18 09:37:40;;;;;;;11.88;8.52;;;;;;;23.24;58.65;101502.03;4822177;29;114400;-65
2021/08/18 09:40:38;;;;;;;11.85;8.68;;;;;;;23.16;58.83;101498.31;4822387;29;114026;-64
2021/08/18 09:43:27;;;;;;;12.18;8.90;;;;;;;23.09;58.63;101509.66;4813147;29;124234;-65
2021/08/18 09:45:59;;;;;;;10.38;7.00;;;;;;;23.03;58.67;101501.19;4825712;29;123771;-65
2021/08/18 09:48:28;;;;;;;11.75;7.93;;;;;;;22.98;58.66;101500.72;4826627;29;114294;-65
2021/08/18 09:50:57;;;;;;;11.25;7.80;;;;;;;22.95;59.05;101496.47;4823688;29;114462;-65
2021/08/18 09:53:26;;;;;;;9.80;6.93;;;;;;;22.98;59.11;101492.63;4821142;29;124100;-65
2021/08/18 09:56:00;;;;;;;12.10;7.70;;;;;;;22.98;58.84;101496.22;4824084;29;123842;-65
2021/08/18 09:58:36;;;;;;;10.03;7.00;;;;;;;22.96;58.86;101498.16;4846371;29;115293;-65
2021/08/18 10:01:10;;;;;;;8.27;5.82;;;;;;;22.96;58.64;101503.56;4847072;29;115046;-65
2021/08/18 10:03:40;;;;;;;11.35;5.88;;;;;;;22.97;58.78;101499.88;4848071;29;124857;-65
2021/08/18 10:06:10;;;;;;;7.47;5.47;;;;;;;22.96;58.58;101497.31;4848123;29;124187;-65
2021/08/18 10:08:38;;;;;;;7.20;5.32;;;;;;;22.96;58.83;101492.75;4847669;29;114076;-65
2021/08/18 10:11:09;;;;;;;7.03;5.28;;;;;;;23.00;58.94;101496.94;4848455;29;114201;-65
2021/08/18 10:13:36;;;;;;;6.60;4.75;;;;;;;23.08;58.81;101496.28;4844716;29;124082;-64
2021/08/18 10:16:04;;;;;;;6.82;4.72;;;;;;;23.16;58.53;101490.22;4850853;28;123776;-65
2021/08/18 10:18:31;;;;;;;6.25;4.85;;;;;;;23.26;58.63;101485.69;4844871;29;113726;-65
2021/08/18 10:21:00;;;;;;;5.43;4.50;;;;;;;23.36;58.46;101500.09;4848762;29;114057;-65
2021/08/18 10:24:06;;;;;;;4.78;4.20;;;;;;;23.44;58.39;101489.44;4841177;29;124394;-65
2021/08/18 10:26:33;;;;;;;4.90;3.83;;;;;;;23.52;57.93;101489.59;4815923;29;123978;-65
2021/08/18 10:29:06;;;;;;;4.95;3.30;;;;;;;23.60;57.59;101490.78;4838570;29;115531;-65
2021/08/18 10:31:42;;;;;;;3.40;2.60;;;;;;;23.66;57.13;101484.84;4829156;29;114291;-65
2021/08/18 10:34:11;;;;;;;3.92;2.65;;;;;;;23.74;57.41;101481.44;4834206;29;124124;-65
2021/08/18 10:36:41;;;;;;;4.28;3.17;;;;;;;23.81;57.24;101488.88;4835754;29;123956;-65
2021/08/18 10:39:29;;;;;;;3.85;2.80;;;;;;;23.86;56.77;101486.59;4817623;29;114119;-65
2021/08/18 10:42:30;;;;;;;4.90;3.17;;;;;;;23.88;56.50;101481.91;4825929;29;113807;-65
2021/08/18 10:44:57;;;;;;;4.38;3.10;;;;;;;23.90;55.98;101487.16;4828094;29;124061;-65
2021/08/18 10:47:37;;;;;;;3.95;3.13;;;;;;;23.88;55.94;101484.63;4831477;29;123987;-65
2021/08/18 10:50:23;;;;;;;4.60;3.33;;;;;;;23.88;56.12;101490.03;4832395;29;115667;-65
2021/08/18 10:52:54;;;;;;;5.05;4.15;;;;;;;23.94;55.90;101490.44;4836641;29;114669;-65
2021/08/18 10:55:22;;;;;;;5.95;4.50;;;;;;;23.96;55.99;101480.34;4835432;29;123885;-65
2021/08/18 10:58:02;;;;;;;6.57;4.60;;;;;;;23.97;56.00;101482.06;4839140;29;124375;-65
2021/08/18 11:00:40;;;;;;;6.05;5.10;;;;;;;23.95;55.88;101473.22;4839341;29;114716;-65
2021/08/18 11:03:11;;;;;;;5.82;4.88;;;;;;;23.94;55.63;101479.63;4842268;29;114301;-65
2021/08/18 11:05:38;;;;;;;6.45;5.05;;;;;;;23.88;55.76;101484.63;4825287;29;124793;-65
2021/08/18 11:08:14;;;;;;;6.97;5.30;;;;;;;23.80;55.81;101487.16;4833313;29;124489;-65
2021/08/18 11:11:03;;;;;;;7.53;5.40;;;;;;;23.70;56.20;101497.06;4820352;29;114359;-65
2021/08/18 11:13:43;;;;;;;6.80;4.90;;;;;;;23.60;56.26;101482.66;4837999;29;114030;-65
2021/08/18 11:16:12;;;;;;;7.38;5.18;;;;;;;23.52;56.51;101486.91;4833065;29;124170;-65
2021/08/18 11:18:54;;;;;;;7.15;5.18;;;;;;;23.44;56.75;101486.75;4844839;29;124005;-65
2021/08/18 11:21:30;;;;;;;5.72;4.78;;;;;;;23.39;56.69;101489.00;4840771;29;114230;-65